sensor_id;sensor_type;location;lat;lon;timestamp;temperature;humidity
35129;DHT22;21301;43.626;10.580;2023-08-06T00:01:22;21.60;99.90
35129;DHT22;21301;43.626;10.580;2023-08-06T00:03:48;21.30;99.90
35129;DHT22;21301;43.626;10.580;2023-08-06T00:06:22;21.00;99.90
35129;DHT22;21301;43.626;10.580;2023-08-06T00:08:49;20.90;99.90
35129;DHT22;21301;43.626;10.580;2023-08-06T00:11:17;20.90;99.90
35129;DHT22;21301;43.626;10.580;2023-08-06T00:13:43;20.90;99.90
35129;DHT22;21301;43.626;10.580;2023-08-06T00:16:12;20.80;99.90
35129;DHT22;21301;43.626;10.580;2023-08-06T00:18:41;20.80;99.90
35129;DHT22;21301;43.626;10.580;2023-08-06T00:21:08;20.60;99.90
35129;DHT22;21301;43.626;10.580;2023-08-06T00:23:35;20.50;99.90
35129;DHT22;21301;43.626;10.580;2023-08-06T00:26:03;20.40;99.90
35129;DHT22;21301;43.626;10.580;2023-08-06T00:28:31;20.30;99.90
35129;DHT22;21301;43.626;10.580;2023-08-06T00:31:17;19.90;99.90
35129;DHT22;21301;43.626;10.580;2023-08-06T00:33:44;19.80;99.90
35129;DHT22;21301;43.626;10.580;2023-08-06T00:36:09;19.70;99.90
35129;DHT22;21301;43.626;10.580;2023-08-06T00:38:40;19.70;99.90
35129;DHT22;21301;43.626;10.580;2023-08-06T00:41:07;19.70;99.90
35129;DHT22;21301;43.626;10.580;2023-08-06T00:43:36;19.60;99.90
35129;DHT22;21301;43.626;10.580;2023-08-06T00:46:04;19.50;99.90
35129;DHT22;21301;43.626;10.580;2023-08-06T00:48:32;19.50;99.90
35129;DHT22;21301;43.626;10.580;2023-08-06T00:51:00;19.30;99.90
35129;DHT22;21301;43.626;10.580;2023-08-06T00:53:28;19.40;99.90
35129;DHT22;21301;43.626;10.580;2023-08-06T00:55:54;19.30;99.90
35129;DHT22;21301;43.626;10.580;2023-08-06T00:58:20;19.20;99.90
35129;DHT22;21301;43.626;10.580;2023-08-06T01:00:47;19.00;99.90
35129;DHT22;21301;43.626;10.580;2023-08-06T01:03:19;19.00;99.90
35129;DHT22;21301;43.626;10.580;2023-08-06T01:05:49;18.90;99.90
35129;DHT22;21301;43.626;10.580;2023-08-06T01:13:50;18.50;99.90
35129;DHT22;21301;43.626;10.580;2023-08-06T01:16:20;18.40;99.90
35129;DHT22;21301;43.626;10.580;2023-08-06T01:18:48;18.40;99.90
35129;DHT22;21301;43.626;10.580;2023-08-06T01:21:29;18.40;99.90
35129;DHT22;21301;43.626;10.580;2023-08-06T01:24:12;18.20;99.90
35129;DHT22;21301;43.626;10.580;2023-08-06T01:26:53;18.30;99.90
35129;DHT22;21301;43.626;10.580;2023-08-06T01:29:56;18.40;99.90
35129;DHT22;21301;43.626;10.580;2023-08-06T01:32:27;18.30;99.90
35129;DHT22;21301;43.626;10.580;2023-08-06T01:35:03;18.40;99.90
35129;DHT22;21301;43.626;10.580;2023-08-06T01:37:31;18.50;99.90
35129;DHT22;21301;43.626;10.580;2023-08-06T01:40:12;18.60;99.90
35129;DHT22;21301;43.626;10.580;2023-08-06T01:42:45;19.10;99.90
35129;DHT22;21301;43.626;10.580;2023-08-06T01:45:13;19.40;99.90
35129;DHT22;21301;43.626;10.580;2023-08-06T01:47:46;19.50;99.90
35129;DHT22;21301;43.626;10.580;2023-08-06T02:01:35;18.80;99.90
35129;DHT22;21301;43.626;10.580;2023-08-06T02:04:17;18.50;99.90
35129;DHT22;21301;43.626;10.580;2023-08-06T02:07:21;18.30;99.90
35129;DHT22;21301;43.626;10.580;2023-08-06T02:09:47;18.10;99.90
35129;DHT22;21301;43.626;10.580;2023-08-06T02:12:19;17.90;99.90
35129;DHT22;21301;43.626;10.580;2023-08-06T02:14:46;17.80;99.90
35129;DHT22;21301;43.626;10.580;2023-08-06T02:17:19;17.70;99.90
35129;DHT22;21301;43.626;10.580;2023-08-06T02:19:45;17.70;99.90
35129;DHT22;21301;43.626;10.580;2023-08-06T02:22:11;17.70;99.90
35129;DHT22;21301;43.626;10.580;2023-08-06T02:24:40;17.70;99.90
35129;DHT22;21301;43.626;10.580;2023-08-06T02:30:54;17.70;99.90
35129;DHT22;21301;43.626;10.580;2023-08-06T02:33:33;17.60;99.90
35129;DHT22;21301;43.626;10.580;2023-08-06T02:36:24;17.60;99.90
35129;DHT22;21301;43.626;10.580;2023-08-06T02:39:05;17.60;99.90
35129;DHT22;21301;43.626;10.580;2023-08-06T02:41:43;17.80;99.90
35129;DHT22;21301;43.626;10.580;2023-08-06T02:44:16;17.70;99.90
35129;DHT22;21301;43.626;10.580;2023-08-06T02:46:52;17.70;99.90
35129;DHT22;21301;43.626;10.580;2023-08-06T02:49:26;17.80;99.90
35129;DHT22;21301;43.626;10.580;2023-08-06T02:52:01;18.20;99.90
35129;DHT22;21301;43.626;10.580;2023-08-06T02:54:29;18.30;99.90
35129;DHT22;21301;43.626;10.580;2023-08-06T02:56:56;18.30;99.90
35129;DHT22;21301;43.626;10.580;2023-08-06T02:59:30;18.70;99.90
35129;DHT22;21301;43.626;10.580;2023-08-06T03:02:21;19.00;99.90
35129;DHT22;21301;43.626;10.580;2023-08-06T03:04:58;19.00;99.90
35129;DHT22;21301;43.626;10.580;2023-08-06T03:07:32;18.70;99.90
35129;DHT22;21301;43.626;10.580;2023-08-06T03:10:14;18.70;99.90
35129;DHT22;21301;43.626;10.580;2023-08-06T03:12:44;18.80;99.90
35129;DHT22;21301;43.626;10.580;2023-08-06T03:15:20;18.80;99.90
35129;DHT22;21301;43.626;10.580;2023-08-06T03:17:49;18.60;99.90
35129;DHT22;21301;43.626;10.580;2023-08-06T03:20:21;18.40;99.90
35129;DHT22;21301;43.626;10.580;2023-08-06T03:22:51;18.40;99.90
35129;DHT22;21301;43.626;10.580;2023-08-06T03:25:26;18.40;99.90
35129;DHT22;21301;43.626;10.580;2023-08-06T03:27:53;18.50;99.90
35129;DHT22;21301;43.626;10.580;2023-08-06T03:30:24;18.40;99.90
35129;DHT22;21301;43.626;10.580;2023-08-06T03:33:02;18.30;99.90
35129;DHT22;21301;43.626;10.580;2023-08-06T03:35:32;18.40;99.90
35129;DHT22;21301;43.626;10.580;2023-08-06T03:38:02;18.50;99.90
35129;DHT22;21301;43.626;10.580;2023-08-06T03:40:30;18.40;99.90
35129;DHT22;21301;43.626;10.580;2023-08-06T03:43:05;18.40;99.90
35129;DHT22;21301;43.626;10.580;2023-08-06T03:45:34;18.60;99.90
35129;DHT22;21301;43.626;10.580;2023-08-06T03:48:02;18.60;99.90
35129;DHT22;21301;43.626;10.580;2023-08-06T03:50:39;18.50;99.90
35129;DHT22;21301;43.626;10.580;2023-08-06T03:53:19;18.50;99.90
35129;DHT22;21301;43.626;10.580;2023-08-06T03:55:51;18.50;99.90
35129;DHT22;21301;43.626;10.580;2023-08-06T03:58:27;18.40;99.90
35129;DHT22;21301;43.626;10.580;2023-08-06T04:01:02;18.50;99.90
35129;DHT22;21301;43.626;10.580;2023-08-06T04:03:47;18.70;99.90
35129;DHT22;21301;43.626;10.580;2023-08-06T04:06:23;19.00;99.90
35129;DHT22;21301;43.626;10.580;2023-08-06T04:09:07;18.90;99.90
35129;DHT22;21301;43.626;10.580;2023-08-06T04:12:06;18.70;99.90
35129;DHT22;21301;43.626;10.580;2023-08-06T04:14:56;19.00;99.90
35129;DHT22;21301;43.626;10.580;2023-08-06T04:17:26;19.40;99.90
35129;DHT22;21301;43.626;10.580;2023-08-06T04:20:04;19.60;99.90
35129;DHT22;21301;43.626;10.580;2023-08-06T04:22:46;19.90;99.90
35129;DHT22;21301;43.626;10.580;2023-08-06T04:25:31;19.90;99.90
35129;DHT22;21301;43.626;10.580;2023-08-06T04:35:33;19.10;99.90
35129;DHT22;21301;43.626;10.580;2023-08-06T04:38:04;19.40;99.90
35129;DHT22;21301;43.626;10.580;2023-08-06T04:40:37;19.50;99.90
35129;DHT22;21301;43.626;10.580;2023-08-06T04:43:19;19.30;99.90
35129;DHT22;21301;43.626;10.580;2023-08-06T04:46:06;19.10;99.90
35129;DHT22;21301;43.626;10.580;2023-08-06T04:52:26;19.20;99.90
35129;DHT22;21301;43.626;10.580;2023-08-06T04:58:54;19.40;99.90
35129;DHT22;21301;43.626;10.580;2023-08-06T05:01:26;19.30;99.90
35129;DHT22;21301;43.626;10.580;2023-08-06T05:11:37;19.90;99.90
35129;DHT22;21301;43.626;10.580;2023-08-06T05:14:03;20.70;99.90
35129;DHT22;21301;43.626;10.580;2023-08-06T05:16:30;20.30;99.90
35129;DHT22;21301;43.626;10.580;2023-08-06T05:18:58;20.10;99.90
35129;DHT22;21301;43.626;10.580;2023-08-06T05:21:36;19.90;99.90
35129;DHT22;21301;43.626;10.580;2023-08-06T05:24:05;19.90;99.90
35129;DHT22;21301;43.626;10.580;2023-08-06T05:26:37;20.10;99.90
35129;DHT22;21301;43.626;10.580;2023-08-06T05:29:18;20.50;99.90
35129;DHT22;21301;43.626;10.580;2023-08-06T05:31:45;20.90;99.90
35129;DHT22;21301;43.626;10.580;2023-08-06T05:34:11;21.20;99.90
35129;DHT22;21301;43.626;10.580;2023-08-06T05:36:38;21.00;99.90
35129;DHT22;21301;43.626;10.580;2023-08-06T05:39:05;21.00;99.90
35129;DHT22;21301;43.626;10.580;2023-08-06T05:41:32;21.30;99.90
35129;DHT22;21301;43.626;10.580;2023-08-06T05:44:05;21.80;99.90
35129;DHT22;21301;43.626;10.580;2023-08-06T05:46:40;22.10;99.90
35129;DHT22;21301;43.626;10.580;2023-08-06T05:49:07;22.30;99.90
35129;DHT22;21301;43.626;10.580;2023-08-06T05:51:35;22.40;99.90
35129;DHT22;21301;43.626;10.580;2023-08-06T05:54:06;22.80;99.90
35129;DHT22;21301;43.626;10.580;2023-08-06T06:00:21;22.50;99.90
35129;DHT22;21301;43.626;10.580;2023-08-06T06:02:52;22.50;99.90
35129;DHT22;21301;43.626;10.580;2023-08-06T06:05:22;22.20;99.90
35129;DHT22;21301;43.626;10.580;2023-08-06T06:07:49;22.20;99.90
35129;DHT22;21301;43.626;10.580;2023-08-06T06:10:24;22.00;99.90
35129;DHT22;21301;43.626;10.580;2023-08-06T06:12:51;22.00;99.90
35129;DHT22;21301;43.626;10.580;2023-08-06T06:15:19;21.80;99.90
35129;DHT22;21301;43.626;10.580;2023-08-06T06:17:50;22.10;99.90
35129;DHT22;21301;43.626;10.580;2023-08-06T06:20:17;22.80;99.90
35129;DHT22;21301;43.626;10.580;2023-08-06T06:22:44;22.50;99.90
35129;DHT22;21301;43.626;10.580;2023-08-06T06:25:13;22.60;99.90
35129;DHT22;21301;43.626;10.580;2023-08-06T06:27:44;22.80;99.90
35129;DHT22;21301;43.626;10.580;2023-08-06T06:30:12;23.10;99.90
35129;DHT22;21301;43.626;10.580;2023-08-06T06:32:42;23.20;99.90
35129;DHT22;21301;43.626;10.580;2023-08-06T06:35:10;23.20;99.90
35129;DHT22;21301;43.626;10.580;2023-08-06T06:37:47;23.80;99.90
35129;DHT22;21301;43.626;10.580;2023-08-06T06:40:15;23.60;99.90
35129;DHT22;21301;43.626;10.580;2023-08-06T06:42:43;24.00;99.90
35129;DHT22;21301;43.626;10.580;2023-08-06T06:45:11;24.10;99.90
35129;DHT22;21301;43.626;10.580;2023-08-06T06:47:41;24.50;99.90
35129;DHT22;21301;43.626;10.580;2023-08-06T06:50:22;25.40;99.90
35129;DHT22;21301;43.626;10.580;2023-08-06T06:52:51;25.40;99.90
35129;DHT22;21301;43.626;10.580;2023-08-06T06:55:25;25.70;99.90
35129;DHT22;21301;43.626;10.580;2023-08-06T06:57:54;26.10;99.90
35129;DHT22;21301;43.626;10.580;2023-08-06T07:00:22;25.80;99.90
35129;DHT22;21301;43.626;10.580;2023-08-06T07:02:49;25.70;1.00
35129;DHT22;21301;43.626;10.580;2023-08-06T07:05:21;26.10;99.90
35129;DHT22;21301;43.626;10.580;2023-08-06T07:07:49;26.10;1.00
35129;DHT22;21301;43.626;10.580;2023-08-06T07:10:18;25.80;81.80
35129;DHT22;21301;43.626;10.580;2023-08-06T07:12:47;25.80;1.00
35129;DHT22;21301;43.626;10.580;2023-08-06T07:15:15;26.20;99.90
35129;DHT22;21301;43.626;10.580;2023-08-06T07:17:44;26.20;3.80
35129;DHT22;21301;43.626;10.580;2023-08-06T07:20:15;25.90;99.90
35129;DHT22;21301;43.626;10.580;2023-08-06T07:22:49;25.40;99.90
35129;DHT22;21301;43.626;10.580;2023-08-06T07:25:23;25.40;99.90
35129;DHT22;21301;43.626;10.580;2023-08-06T07:27:52;25.40;99.90
35129;DHT22;21301;43.626;10.580;2023-08-06T07:30:20;26.00;1.00
35129;DHT22;21301;43.626;10.580;2023-08-06T07:32:59;26.20;99.90
35129;DHT22;21301;43.626;10.580;2023-08-06T07:35:35;26.60;99.90
35129;DHT22;21301;43.626;10.580;2023-08-06T07:38:04;27.00;73.00
35129;DHT22;21301;43.626;10.580;2023-08-06T07:40:38;27.30;99.90
35129;DHT22;21301;43.626;10.580;2023-08-06T07:43:17;27.90;99.90
35129;DHT22;21301;43.626;10.580;2023-08-06T07:46:00;28.60;99.90
35129;DHT22;21301;43.626;10.580;2023-08-06T07:48:32;28.00;1.00
35129;DHT22;21301;43.626;10.580;2023-08-06T07:51:00;28.00;99.90
35129;DHT22;21301;43.626;10.580;2023-08-06T07:53:30;28.30;99.90
35129;DHT22;21301;43.626;10.580;2023-08-06T07:56:23;28.70;99.90
35129;DHT22;21301;43.626;10.580;2023-08-06T07:59:00;29.20;99.90
35129;DHT22;21301;43.626;10.580;2023-08-06T08:02:08;29.50;38.30
35129;DHT22;21301;43.626;10.580;2023-08-06T08:05:16;29.70;12.90
35129;DHT22;21301;43.626;10.580;2023-08-06T08:07:53;29.50;1.00
35129;DHT22;21301;43.626;10.580;2023-08-06T08:10:34;29.20;99.80
35129;DHT22;21301;43.626;10.580;2023-08-06T08:13:21;28.90;1.00
35129;DHT22;21301;43.626;10.580;2023-08-06T08:15:47;28.50;88.70
35129;DHT22;21301;43.626;10.580;2023-08-06T08:18:13;28.00;99.90
35129;DHT22;21301;43.626;10.580;2023-08-06T08:24:35;26.00;99.90
35129;DHT22;21301;43.626;10.580;2023-08-06T08:27:03;26.20;99.90
35129;DHT22;21301;43.626;10.580;2023-08-06T08:29:46;26.20;99.90
35129;DHT22;21301;43.626;10.580;2023-08-06T08:32:19;25.80;99.90
35129;DHT22;21301;43.626;10.580;2023-08-06T08:35:00;26.60;99.90
35129;DHT22;21301;43.626;10.580;2023-08-06T08:37:27;27.10;99.90
35129;DHT22;21301;43.626;10.580;2023-08-06T08:39:55;27.80;99.90
35129;DHT22;21301;43.626;10.580;2023-08-06T08:42:32;27.70;1.00
35129;DHT22;21301;43.626;10.580;2023-08-06T08:45:12;27.20;99.90
35129;DHT22;21301;43.626;10.580;2023-08-06T08:47:54;26.50;99.90
35129;DHT22;21301;43.626;10.580;2023-08-06T08:50:26;26.70;99.90
35129;DHT22;21301;43.626;10.580;2023-08-06T08:52:58;27.30;1.00
35129;DHT22;21301;43.626;10.580;2023-08-06T08:55:28;27.20;99.90
35129;DHT22;21301;43.626;10.580;2023-08-06T08:57:54;26.40;99.90
35129;DHT22;21301;43.626;10.580;2023-08-06T09:00:20;26.00;99.90
35129;DHT22;21301;43.626;10.580;2023-08-06T09:02:52;25.90;63.80
35129;DHT22;21301;43.626;10.580;2023-08-06T09:05:32;26.10;36.70
35129;DHT22;21301;43.626;10.580;2023-08-06T09:08:05;26.80;99.90
35129;DHT22;21301;43.626;10.580;2023-08-06T09:13:39;27.00;99.90
35129;DHT22;21301;43.626;10.580;2023-08-06T09:16:05;26.60;1.00
35129;DHT22;21301;43.626;10.580;2023-08-06T09:18:33;26.40;99.90
35129;DHT22;21301;43.626;10.580;2023-08-06T09:21:14;26.40;99.90
35129;DHT22;21301;43.626;10.580;2023-08-06T09:23:49;26.40;99.90
35129;DHT22;21301;43.626;10.580;2023-08-06T09:26:19;26.70;99.90
35129;DHT22;21301;43.626;10.580;2023-08-06T09:28:46;27.10;1.00
35129;DHT22;21301;43.626;10.580;2023-08-06T09:31:32;27.80;99.90
35129;DHT22;21301;43.626;10.580;2023-08-06T09:34:09;27.70;99.90
35129;DHT22;21301;43.626;10.580;2023-08-06T09:36:41;26.80;99.90
35129;DHT22;21301;43.626;10.580;2023-08-06T09:39:20;27.00;99.90
35129;DHT22;21301;43.626;10.580;2023-08-06T09:48:47;27.30;1.00
35129;DHT22;21301;43.626;10.580;2023-08-06T09:51:17;27.10;99.90
35129;DHT22;21301;43.626;10.580;2023-08-06T09:53:46;26.90;99.90
35129;DHT22;21301;43.626;10.580;2023-08-06T09:56:15;27.30;99.90
35129;DHT22;21301;43.626;10.580;2023-08-06T09:58:44;26.80;99.90
35129;DHT22;21301;43.626;10.580;2023-08-06T10:01:13;27.10;99.90
35129;DHT22;21301;43.626;10.580;2023-08-06T10:03:41;26.40;99.90
35129;DHT22;21301;43.626;10.580;2023-08-06T10:06:10;26.70;99.90
35129;DHT22;21301;43.626;10.580;2023-08-06T10:08:36;27.00;1.80
35129;DHT22;21301;43.626;10.580;2023-08-06T10:11:02;27.10;99.90
35129;DHT22;21301;43.626;10.580;2023-08-06T10:13:38;26.70;99.90
35129;DHT22;21301;43.626;10.580;2023-08-06T10:16:20;26.90;95.80
35129;DHT22;21301;43.626;10.580;2023-08-06T10:18:54;26.60;99.90
35129;DHT22;21301;43.626;10.580;2023-08-06T10:21:24;26.20;99.90
35129;DHT22;21301;43.626;10.580;2023-08-06T10:24:07;26.60;99.90
35129;DHT22;21301;43.626;10.580;2023-08-06T10:26:38;26.10;99.90
35129;DHT22;21301;43.626;10.580;2023-08-06T10:29:35;26.90;82.20
35129;DHT22;21301;43.626;10.580;2023-08-06T10:32:04;27.10;99.90
35129;DHT22;21301;43.626;10.580;2023-08-06T10:37:21;26.60;99.90
35129;DHT22;21301;43.626;10.580;2023-08-06T10:39:52;27.40;99.90
35129;DHT22;21301;43.626;10.580;2023-08-06T10:42:27;27.80;54.80
35129;DHT22;21301;43.626;10.580;2023-08-06T10:45:17;28.00;90.10
35129;DHT22;21301;43.626;10.580;2023-08-06T10:47:55;28.30;99.90
35129;DHT22;21301;43.626;10.580;2023-08-06T10:50:31;28.10;99.90
35129;DHT22;21301;43.626;10.580;2023-08-06T10:53:03;28.40;34.50
35129;DHT22;21301;43.626;10.580;2023-08-06T10:55:30;28.50;16.90
35129;DHT22;21301;43.626;10.580;2023-08-06T10:57:58;28.20;99.90
35129;DHT22;21301;43.626;10.580;2023-08-06T11:00:26;28.00;82.20
35129;DHT22;21301;43.626;10.580;2023-08-06T11:02:53;27.90;99.90
35129;DHT22;21301;43.626;10.580;2023-08-06T11:05:49;27.60;99.90
35129;DHT22;21301;43.626;10.580;2023-08-06T11:08:27;27.60;99.90
35129;DHT22;21301;43.626;10.580;2023-08-06T11:10:56;27.90;99.90
35129;DHT22;21301;43.626;10.580;2023-08-06T11:13:33;28.20;99.90
35129;DHT22;21301;43.626;10.580;2023-08-06T11:16:06;28.10;99.90
35129;DHT22;21301;43.626;10.580;2023-08-06T11:18:33;28.10;99.90
35129;DHT22;21301;43.626;10.580;2023-08-06T11:21:01;27.90;99.90
35129;DHT22;21301;43.626;10.580;2023-08-06T11:23:30;27.70;1.00
35129;DHT22;21301;43.626;10.580;2023-08-06T11:26:22;27.70;99.90
35129;DHT22;21301;43.626;10.580;2023-08-06T11:28:50;28.00;99.90
35129;DHT22;21301;43.626;10.580;2023-08-06T11:31:24;28.20;99.90
35129;DHT22;21301;43.626;10.580;2023-08-06T11:33:54;27.80;99.90
35129;DHT22;21301;43.626;10.580;2023-08-06T11:36:32;28.40;99.90
35129;DHT22;21301;43.626;10.580;2023-08-06T11:39:11;28.40;1.00
35129;DHT22;21301;43.626;10.580;2023-08-06T11:42:14;28.30;99.90
35129;DHT22;21301;43.626;10.580;2023-08-06T11:44:42;28.50;1.00
35129;DHT22;21301;43.626;10.580;2023-08-06T11:47:17;28.60;99.90
35129;DHT22;21301;43.626;10.580;2023-08-06T11:49:50;28.70;99.90
35129;DHT22;21301;43.626;10.580;2023-08-06T11:52:22;29.30;99.90
35129;DHT22;21301;43.626;10.580;2023-08-06T11:55:02;29.40;99.90
35129;DHT22;21301;43.626;10.580;2023-08-06T11:57:34;29.60;99.90
35129;DHT22;21301;43.626;10.580;2023-08-06T12:00:09;29.20;99.90
35129;DHT22;21301;43.626;10.580;2023-08-06T12:02:46;29.30;99.90
35129;DHT22;21301;43.626;10.580;2023-08-06T12:05:14;29.30;99.90
35129;DHT22;21301;43.626;10.580;2023-08-06T12:07:42;28.70;1.00
35129;DHT22;21301;43.626;10.580;2023-08-06T12:10:32;28.60;99.90
35129;DHT22;21301;43.626;10.580;2023-08-06T12:13:00;28.80;99.90
35129;DHT22;21301;43.626;10.580;2023-08-06T12:15:45;28.30;1.00
35129;DHT22;21301;43.626;10.580;2023-08-06T12:18:27;28.40;70.30
35129;DHT22;21301;43.626;10.580;2023-08-06T12:20:55;28.50;24.40
35129;DHT22;21301;43.626;10.580;2023-08-06T12:23:26;28.40;99.90
35129;DHT22;21301;43.626;10.580;2023-08-06T12:25:55;27.90;99.90
35129;DHT22;21301;43.626;10.580;2023-08-06T12:28:21;28.20;99.90
35129;DHT22;21301;43.626;10.580;2023-08-06T12:30:47;28.50;99.90
35129;DHT22;21301;43.626;10.580;2023-08-06T12:33:14;28.30;99.90
35129;DHT22;21301;43.626;10.580;2023-08-06T12:35:43;28.20;99.90
35129;DHT22;21301;43.626;10.580;2023-08-06T12:38:09;28.00;99.90
35129;DHT22;21301;43.626;10.580;2023-08-06T12:40:38;27.90;99.90
35129;DHT22;21301;43.626;10.580;2023-08-06T12:43:04;28.10;99.90
35129;DHT22;21301;43.626;10.580;2023-08-06T12:45:31;28.10;99.90
35129;DHT22;21301;43.626;10.580;2023-08-06T12:48:02;28.20;34.50
35129;DHT22;21301;43.626;10.580;2023-08-06T12:53:21;28.10;99.90
35129;DHT22;21301;43.626;10.580;2023-08-06T12:55:59;28.10;99.90
35129;DHT22;21301;43.626;10.580;2023-08-06T12:58:47;28.10;99.90
35129;DHT22;21301;43.626;10.580;2023-08-06T13:01:13;28.20;99.90
35129;DHT22;21301;43.626;10.580;2023-08-06T13:03:47;28.20;99.90
35129;DHT22;21301;43.626;10.580;2023-08-06T13:06:17;27.80;99.90
35129;DHT22;21301;43.626;10.580;2023-08-06T13:08:48;27.70;99.90
35129;DHT22;21301;43.626;10.580;2023-08-06T13:11:16;27.70;99.90
35129;DHT22;21301;43.626;10.580;2023-08-06T13:13:49;27.70;93.00
35129;DHT22;21301;43.626;10.580;2023-08-06T13:16:17;27.30;1.00
35129;DHT22;21301;43.626;10.580;2023-08-06T13:18:45;27.30;99.90
35129;DHT22;21301;43.626;10.580;2023-08-06T13:21:12;27.50;96.80
35129;DHT22;21301;43.626;10.580;2023-08-06T13:23:43;27.10;99.90
35129;DHT22;21301;43.626;10.580;2023-08-06T13:26:12;27.20;99.90
35129;DHT22;21301;43.626;10.580;2023-08-06T13:28:39;27.30;99.90
35129;DHT22;21301;43.626;10.580;2023-08-06T13:31:06;26.90;20.70
35129;DHT22;21301;43.626;10.580;2023-08-06T13:33:33;26.90;99.90
35129;DHT22;21301;43.626;10.580;2023-08-06T13:35:59;26.90;99.90
35129;DHT22;21301;43.626;10.580;2023-08-06T13:38:27;26.80;99.90
35129;DHT22;21301;43.626;10.580;2023-08-06T13:40:55;26.40;1.00
35129;DHT22;21301;43.626;10.580;2023-08-06T13:43:21;26.60;76.60
35129;DHT22;21301;43.626;10.580;2023-08-06T13:45:47;26.80;99.90
35129;DHT22;21301;43.626;10.580;2023-08-06T13:48:14;27.00;99.60
35129;DHT22;21301;43.626;10.580;2023-08-06T13:50:48;26.90;99.90
35129;DHT22;21301;43.626;10.580;2023-08-06T13:53:16;26.70;99.90
35129;DHT22;21301;43.626;10.580;2023-08-06T13:55:43;26.70;99.90
35129;DHT22;21301;43.626;10.580;2023-08-06T13:58:09;26.70;99.90
35129;DHT22;21301;43.626;10.580;2023-08-06T14:00:37;26.80;99.90
35129;DHT22;21301;43.626;10.580;2023-08-06T14:03:04;27.00;99.90
35129;DHT22;21301;43.626;10.580;2023-08-06T14:05:37;27.00;99.90
35129;DHT22;21301;43.626;10.580;2023-08-06T14:08:04;26.80;99.90
35129;DHT22;21301;43.626;10.580;2023-08-06T14:10:31;26.70;99.90
35129;DHT22;21301;43.626;10.580;2023-08-06T14:12:58;27.00;99.90
35129;DHT22;21301;43.626;10.580;2023-08-06T14:15:24;26.70;99.90
35129;DHT22;21301;43.626;10.580;2023-08-06T14:17:51;26.70;99.90
35129;DHT22;21301;43.626;10.580;2023-08-06T14:20:21;26.60;99.90
35129;DHT22;21301;43.626;10.580;2023-08-06T14:22:48;26.90;99.90
35129;DHT22;21301;43.626;10.580;2023-08-06T14:25:14;26.60;99.90
35129;DHT22;21301;43.626;10.580;2023-08-06T14:27:42;26.80;99.90
35129;DHT22;21301;43.626;10.580;2023-08-06T14:30:12;26.90;99.90
35129;DHT22;21301;43.626;10.580;2023-08-06T14:32:41;26.90;99.90
35129;DHT22;21301;43.626;10.580;2023-08-06T14:35:10;26.60;99.90
35129;DHT22;21301;43.626;10.580;2023-08-06T14:37:39;26.70;99.90
35129;DHT22;21301;43.626;10.580;2023-08-06T14:40:07;26.90;99.90
35129;DHT22;21301;43.626;10.580;2023-08-06T14:42:34;26.80;26.20
35129;DHT22;21301;43.626;10.580;2023-08-06T14:45:01;26.60;39.40
35129;DHT22;21301;43.626;10.580;2023-08-06T14:47:29;26.50;84.40
35129;DHT22;21301;43.626;10.580;2023-08-06T14:49:55;26.60;98.80
35129;DHT22;21301;43.626;10.580;2023-08-06T14:52:22;26.90;99.90
35129;DHT22;21301;43.626;10.580;2023-08-06T14:54:48;27.10;10.50
35129;DHT22;21301;43.626;10.580;2023-08-06T14:57:19;27.00;99.90
35129;DHT22;21301;43.626;10.580;2023-08-06T14:59:48;26.60;1.00
35129;DHT22;21301;43.626;10.580;2023-08-06T15:02:15;26.70;19.80
35129;DHT22;21301;43.626;10.580;2023-08-06T15:04:48;26.70;1.00
35129;DHT22;21301;43.626;10.580;2023-08-06T15:07:15;26.70;44.70
35129;DHT22;21301;43.626;10.580;2023-08-06T15:09:41;26.70;67.60
35129;DHT22;21301;43.626;10.580;2023-08-06T15:12:09;26.90;55.40
35129;DHT22;21301;43.626;10.580;2023-08-06T15:14:36;27.10;1.00
35129;DHT22;21301;43.626;10.580;2023-08-06T15:17:03;27.20;99.90
35129;DHT22;21301;43.626;10.580;2023-08-06T15:19:33;26.80;99.90
35129;DHT22;21301;43.626;10.580;2023-08-06T15:22:01;26.80;99.90
35129;DHT22;21301;43.626;10.580;2023-08-06T15:24:36;26.70;99.90
35129;DHT22;21301;43.626;10.580;2023-08-06T15:27:08;26.40;9.40
35129;DHT22;21301;43.626;10.580;2023-08-06T15:29:35;26.70;1.00
35129;DHT22;21301;43.626;10.580;2023-08-06T15:32:03;26.80;99.90
35129;DHT22;21301;43.626;10.580;2023-08-06T15:34:31;26.50;1.00
35129;DHT22;21301;43.626;10.580;2023-08-06T15:37:06;26.10;99.90
35129;DHT22;21301;43.626;10.580;2023-08-06T15:39:45;26.10;99.90
35129;DHT22;21301;43.626;10.580;2023-08-06T15:42:13;26.10;99.90
35129;DHT22;21301;43.626;10.580;2023-08-06T15:44:41;26.00;99.90
35129;DHT22;21301;43.626;10.580;2023-08-06T15:47:11;26.10;37.90
35129;DHT22;21301;43.626;10.580;2023-08-06T15:49:38;26.10;1.00
35129;DHT22;21301;43.626;10.580;2023-08-06T15:52:08;26.10;1.00
35129;DHT22;21301;43.626;10.580;2023-08-06T15:54:41;26.30;99.90
35129;DHT22;21301;43.626;10.580;2023-08-06T15:57:07;26.00;99.90
35129;DHT22;21301;43.626;10.580;2023-08-06T16:03:28;26.00;99.90
35129;DHT22;21301;43.626;10.580;2023-08-06T16:06:04;26.00;99.90
35129;DHT22;21301;43.626;10.580;2023-08-06T16:08:39;26.00;99.90
35129;DHT22;21301;43.626;10.580;2023-08-06T16:11:05;25.90;99.90
35129;DHT22;21301;43.626;10.580;2023-08-06T16:13:33;25.90;99.90
35129;DHT22;21301;43.626;10.580;2023-08-06T16:16:02;25.70;99.90
35129;DHT22;21301;43.626;10.580;2023-08-06T16:18:29;25.80;99.90
35129;DHT22;21301;43.626;10.580;2023-08-06T16:21:08;25.80;1.00
35129;DHT22;21301;43.626;10.580;2023-08-06T16:23:36;25.80;99.90
35129;DHT22;21301;43.626;10.580;2023-08-06T16:26:02;25.70;99.90
35129;DHT22;21301;43.626;10.580;2023-08-06T16:28:29;25.70;70.50
35129;DHT22;21301;43.626;10.580;2023-08-06T16:31:00;25.40;99.90
35129;DHT22;21301;43.626;10.580;2023-08-06T16:33:30;25.50;99.50
35129;DHT22;21301;43.626;10.580;2023-08-06T16:35:56;25.40;99.90
35129;DHT22;21301;43.626;10.580;2023-08-06T16:38:22;25.60;1.00
35129;DHT22;21301;43.626;10.580;2023-08-06T16:40:54;25.60;38.00
35129;DHT22;21301;43.626;10.580;2023-08-06T16:43:24;25.30;99.90
35129;DHT22;21301;43.626;10.580;2023-08-06T16:45:54;25.20;99.90
35129;DHT22;21301;43.626;10.580;2023-08-06T16:48:25;25.10;1.00
35129;DHT22;21301;43.626;10.580;2023-08-06T16:51:00;25.40;99.90
35129;DHT22;21301;43.626;10.580;2023-08-06T16:53:32;25.30;99.90
35129;DHT22;21301;43.626;10.580;2023-08-06T16:55:58;25.00;99.90
35129;DHT22;21301;43.626;10.580;2023-08-06T16:58:26;25.10;49.40